sensor_id;sensor_type;location;lat;lon;timestamp;temperature;humidity
44731;DHT22;30458;47.448;19.032;2023-03-14T00:08:44;10.10;82.70
44731;DHT22;30458;47.448;19.032;2023-03-14T00:18:45;9.90;83.40
44731;DHT22;30458;47.448;19.032;2023-03-14T00:28:46;9.90;83.80
44731;DHT22;30458;47.448;19.032;2023-03-14T00:38:49;9.80;84.20
44731;DHT22;30458;47.448;19.032;2023-03-14T00:48:53;9.70;84.60
44731;DHT22;30458;47.448;19.032;2023-03-14T00:58:55;9.80;84.50
44731;DHT22;30458;47.448;19.032;2023-03-14T01:08:57;9.90;84.40
44731;DHT22;30458;47.448;19.032;2023-03-14T01:18:58;9.80;84.70
44731;DHT22;30458;47.448;19.032;2023-03-14T01:28:59;9.80;84.40
44731;DHT22;30458;47.448;19.032;2023-03-14T01:39:04;9.70;85.00
44731;DHT22;30458;47.448;19.032;2023-03-14T01:49:14;9.50;85.70
44731;DHT22;30458;47.448;19.032;2023-03-14T01:59:18;9.40;86.70
44731;DHT22;30458;47.448;19.032;2023-03-14T02:09:20;9.20;87.60
44731;DHT22;30458;47.448;19.032;2023-03-14T02:19:50;9.20;88.20
44731;DHT22;30458;47.448;19.032;2023-03-14T02:40:13;9.30;88.90
44731;DHT22;30458;47.448;19.032;2023-03-14T02:50:21;9.10;89.60
44731;DHT22;30458;47.448;19.032;2023-03-14T03:00:25;9.10;90.10
44731;DHT22;30458;47.448;19.032;2023-03-14T03:10:31;9.30;90.00
44731;DHT22;30458;47.448;19.032;2023-03-14T03:20:35;9.40;90.20
44731;DHT22;30458;47.448;19.032;2023-03-14T03:30:40;9.50;90.10
44731;DHT22;30458;47.448;19.032;2023-03-14T03:40:41;9.70;90.10
44731;DHT22;30458;47.448;19.032;2023-03-14T03:50:46;9.70;90.00
44731;DHT22;30458;47.448;19.032;2023-03-14T04:00:50;9.70;90.10
44731;DHT22;30458;47.448;19.032;2023-03-14T04:10:55;9.90;90.00
44731;DHT22;30458;47.448;19.032;2023-03-14T04:21:05;10.10;89.60
44731;DHT22;30458;47.448;19.032;2023-03-14T04:31:19;10.00;90.00
44731;DHT22;30458;47.448;19.032;2023-03-14T04:41:26;9.90;90.30
44731;DHT22;30458;47.448;19.032;2023-03-14T04:51:29;9.90;90.40
44731;DHT22;30458;47.448;19.032;2023-03-14T05:01:30;9.70;90.60
44731;DHT22;30458;47.448;19.032;2023-03-14T05:11:49;9.60;90.80
44731;DHT22;30458;47.448;19.032;2023-03-14T05:22:19;9.70;90.50
44731;DHT22;30458;47.448;19.032;2023-03-14T05:32:28;9.70;90.30
44731;DHT22;30458;47.448;19.032;2023-03-14T05:42:52;9.70;90.20
44731;DHT22;30458;47.448;19.032;2023-03-14T05:53:05;10.00;90.00
44731;DHT22;30458;47.448;19.032;2023-03-14T06:03:31;10.40;88.30
44731;DHT22;30458;47.448;19.032;2023-03-14T06:13:32;11.70;85.10
44731;DHT22;30458;47.448;19.032;2023-03-14T06:23:33;12.60;82.10
44731;DHT22;30458;47.448;19.032;2023-03-14T06:33:35;13.40;80.70
44731;DHT22;30458;47.448;19.032;2023-03-14T06:43:36;12.80;80.50
44731;DHT22;30458;47.448;19.032;2023-03-14T06:53:40;12.20;82.70
44731;DHT22;30458;47.448;19.032;2023-03-14T07:03:46;11.80;84.50
44731;DHT22;30458;47.448;19.032;2023-03-14T07:13:47;11.60;85.40
44731;DHT22;30458;47.448;19.032;2023-03-14T07:23:51;12.00;85.50
44731;DHT22;30458;47.448;19.032;2023-03-14T07:33:52;13.10;83.80
44731;DHT22;30458;47.448;19.032;2023-03-14T07:44:00;14.60;79.60
44731;DHT22;30458;47.448;19.032;2023-03-14T07:54:06;15.10;78.50
44731;DHT22;30458;47.448;19.032;2023-03-14T08:04:10;15.20;78.40
44731;DHT22;30458;47.448;19.032;2023-03-14T08:14:13;15.50;79.00
44731;DHT22;30458;47.448;19.032;2023-03-14T08:24:16;15.70;78.70
44731;DHT22;30458;47.448;19.032;2023-03-14T08:34:17;15.90;78.60
44731;DHT22;30458;47.448;19.032;2023-03-14T08:44:23;16.80;77.40
44731;DHT22;30458;47.448;19.032;2023-03-14T08:54:26;18.40;73.80
44731;DHT22;30458;47.448;19.032;2023-03-14T09:04:29;19.20;71.00
44731;DHT22;30458;47.448;19.032;2023-03-14T09:14:30;16.80;74.70
44731;DHT22;30458;47.448;19.032;2023-03-14T09:24:33;16.50;76.10
44731;DHT22;30458;47.448;19.032;2023-03-14T09:34:34;16.60;76.40
44731;DHT22;30458;47.448;19.032;2023-03-14T09:44:39;16.60;76.20
44731;DHT22;30458;47.448;19.032;2023-03-14T09:54:57;16.70;76.60
44731;DHT22;30458;47.448;19.032;2023-03-14T10:05:02;16.70;77.80
44731;DHT22;30458;47.448;19.032;2023-03-14T10:15:13;17.10;77.60
44731;DHT22;30458;47.448;19.032;2023-03-14T10:25:29;18.00;74.50
44731;DHT22;30458;47.448;19.032;2023-03-14T10:35:34;18.60;72.60
44731;DHT22;30458;47.448;19.032;2023-03-14T10:45:42;18.70;72.60
44731;DHT22;30458;47.448;19.032;2023-03-14T10:55:44;18.80;72.20
44731;DHT22;30458;47.448;19.032;2023-03-14T11:57:26;19.30;71.60
44731;DHT22;30458;47.448;19.032;2023-03-14T12:07:34;19.50;71.70
44731;DHT22;30458;47.448;19.032;2023-03-14T12:17:41;19.70;70.50
44731;DHT22;30458;47.448;19.032;2023-03-14T12:37:55;20.10;70.20
44731;DHT22;30458;47.448;19.032;2023-03-14T12:58:34;20.00;71.10
44731;DHT22;30458;47.448;19.032;2023-03-14T13:08:45;19.80;71.00
44731;DHT22;30458;47.448;19.032;2023-03-14T13:18:49;19.70;70.60
44731;DHT22;30458;47.448;19.032;2023-03-14T13:28:53;19.50;70.80
44731;DHT22;30458;47.448;19.032;2023-03-14T13:39:01;19.30;70.90
44731;DHT22;30458;47.448;19.032;2023-03-14T13:49:06;19.20;71.70
44731;DHT22;30458;47.448;19.032;2023-03-14T13:59:31;19.00;72.50
44731;DHT22;30458;47.448;19.032;2023-03-14T14:09:42;19.00;72.70
44731;DHT22;30458;47.448;19.032;2023-03-14T14:19:44;19.00;72.90
44731;DHT22;30458;47.448;19.032;2023-03-14T14:29:57;18.90;73.40
44731;DHT22;30458;47.448;19.032;2023-03-14T14:40:06;18.90;72.40
44731;DHT22;30458;47.448;19.032;2023-03-14T15:00:32;19.10;71.70
44731;DHT22;30458;47.448;19.032;2023-03-14T15:10:33;19.00;72.60
44731;DHT22;30458;47.448;19.032;2023-03-14T15:20:34;18.80;71.60
44731;DHT22;30458;47.448;19.032;2023-03-14T15:30:37;18.60;71.40
44731;DHT22;30458;47.448;19.032;2023-03-14T15:40:43;18.50;72.40
44731;DHT22;30458;47.448;19.032;2023-03-14T15:50:43;18.50;72.50
44731;DHT22;30458;47.448;19.032;2023-03-14T16:00:44;18.40;72.20
44731;DHT22;30458;47.448;19.032;2023-03-14T16:10:48;17.90;83.10
44731;DHT22;30458;47.448;19.032;2023-03-14T16:20:57;16.90;91.70
44731;DHT22;30458;47.448;19.032;2023-03-14T16:31:09;16.30;95.30
44731;DHT22;30458;47.448;19.032;2023-03-14T16:51:15;15.70;98.00
44731;DHT22;30458;47.448;19.032;2023-03-14T17:01:17;15.40;99.20
44731;DHT22;30458;47.448;19.032;2023-03-14T17:11:18;15.10;99.90
44731;DHT22;30458;47.448;19.032;2023-03-14T17:21:24;14.90;99.90
44731;DHT22;30458;47.448;19.032;2023-03-14T17:31:24;14.60;99.90
44731;DHT22;30458;47.448;19.032;2023-03-14T17:41:28;14.20;99.90
44731;DHT22;30458;47.448;19.032;2023-03-14T17:51:28;14.20;99.90
44731;DHT22;30458;47.448;19.032;2023-03-14T18:01:29;14.10;99.90
44731;DHT22;30458;47.448;19.032;2023-03-14T18:11:30;14.20;99.90
44731;DHT22;30458;47.448;19.032;2023-03-14T18:21:34;14.40;99.90
44731;DHT22;30458;47.448;19.032;2023-03-14T18:31:40;14.50;99.90
44731;DHT22;30458;47.448;19.032;2023-03-14T18:41:46;14.20;99.90
44731;DHT22;30458;47.448;19.032;2023-03-14T18:51:49;14.10;99.90
44731;DHT22;30458;47.448;19.032;2023-03-14T19:01:50;14.00;99.90
44731;DHT22;30458;47.448;19.032;2023-03-14T19:11:53;14.10;99.90
44731;DHT22;30458;47.448;19.032;2023-03-14T19:21:54;14.20;99.90
44731;DHT22;30458;47.448;19.032;2023-03-14T19:31:54;14.40;99.90
44731;DHT22;30458;47.448;19.032;2023-03-14T19:41:55;14.50;99.90
44731;DHT22;30458;47.448;19.032;2023-03-14T19:51:58;14.60;99.90
44731;DHT22;30458;47.448;19.032;2023-03-14T20:02:00;14.80;99.90
44731;DHT22;30458;47.448;19.032;2023-03-14T20:12:04;14.70;99.90
44731;DHT22;30458;47.448;19.032;2023-03-14T20:22:04;14.60;99.90
44731;DHT22;30458;47.448;19.032;2023-03-14T20:32:05;14.40;99.90
44731;DHT22;30458;47.448;19.032;2023-03-14T20:42:13;14.10;99.90
44731;DHT22;30458;47.448;19.032;2023-03-14T20:52:14;13.80;99.90
44731;DHT22;30458;47.448;19.032;2023-03-14T21:02:15;13.60;99.90
44731;DHT22;30458;47.448;19.032;2023-03-14T21:12:16;13.70;99.90
44731;DHT22;30458;47.448;19.032;2023-03-14T21:22:18;13.80;99.90
44731;DHT22;30458;47.448;19.032;2023-03-14T21:32:22;13.50;99.90
44731;DHT22;30458;47.448;19.032;2023-03-14T21:42:25;13.60;99.90
44731;DHT22;30458;47.448;19.032;2023-03-14T21:52:26;13.60;99.90
44731;DHT22;30458;47.448;19.032;2023-03-14T22:02:30;13.50;99.90
44731;DHT22;30458;47.448;19.032;2023-03-14T22:12:30;13.20;99.90
44731;DHT22;30458;47.448;19.032;2023-03-14T22:22:33;13.10;99.90
44731;DHT22;30458;47.448;19.032;2023-03-14T22:32:34;12.90;99.90
44731;DHT22;30458;47.448;19.032;2023-03-14T22:42:35;13.00;99.90
44731;DHT22;30458;47.448;19.032;2023-03-14T22:52:36;12.90;99.90
44731;DHT22;30458;47.448;19.032;2023-03-14T23:02:38;12.70;99.90
44731;DHT22;30458;47.448;19.032;2023-03-14T23:12:41;12.70;99.90
44731;DHT22;30458;47.448;19.032;2023-03-14T23:22:44;12.50;99.90
44731;DHT22;30458;47.448;19.032;2023-03-14T23:32:46;12.40;99.90
44731;DHT22;30458;47.448;19.032;2023-03-14T23:42:49;12.30;99.90
44731;DHT22;30458;47.448;19.032;2023-03-14T23:52:49;12.30;99.90
